Time;durP1;ratioP1;P1;durP2;ratioP2;P2;SDS_P1;SDS_P2;PMS_P1;PMS_P2;Temp;Humidity;BMP_temperature;BMP_pressure;BME280_temperature;BME280_humidity;BME280_pressure;Samples;Min_cycle;Max_cycle;Signal;HPM_P1;HPM_P2
2022/06/05 00:00:38;;;;;;;10.23;5.10;;;;;;;;;;5154864;27;20058;-78
2022/06/05 00:03:33;;;;;;;8.35;5.13;;;;;;;;;;5151940;27;20422;-78
2022/06/05 00:06:19;;;;;;;12.05;5.88;;;;;;;;;;5152759;27;20058;-78
2022/06/05 00:09:01;;;;;;;11.80;5.55;;;;;;;;;;5127495;27;20521;-77
2022/06/05 00:11:30;;;;;;;10.98;5.65;;;;;;;;;;5135421;27;20520;-78
2022/06/05 00:14:15;;;;;;;10.43;5.32;;;;;;;;;;5131865;27;20936;-78
2022/06/05 00:16:49;;;;;;;9.38;5.43;;;;;;;;;;5132309;27;20402;-78
2022/06/05 00:19:21;;;;;;;10.82;6.45;;;;;;;;;;5134864;27;20491;-78
2022/06/05 00:21:51;;;;;;;12.60;5.60;;;;;;;;;;5144580;27;20505;-77
2022/06/05 00:24:20;;;;;;;11.13;6.13;;;;;;;;;;5135424;27;20793;-77
2022/06/05 00:26:57;;;;;;;12.68;5.90;;;;;;;;;;5137309;27;20067;-78
2022/06/05 00:29:55;;;;;;;13.13;5.93;;;;;;;;;;5135100;27;20054;-78
2022/06/05 00:32:49;;;;;;;10.40;5.38;;;;;;;;;;5159459;27;20129;-77
2022/06/05 00:35:30;;;;;;;10.43;5.68;;;;;;;;;;5158580;27;20784;-78
2022/06/05 00:38:14;;;;;;;12.10;5.63;;;;;;;;;;5130176;27;20569;-78
2022/06/05 00:41:18;;;;;;;11.10;5.63;;;;;;;;;;5164045;27;20510;-77
2022/06/05 00:43:49;;;;;;;9.98;6.00;;;;;;;;;;5159304;27;20509;-77
2022/06/05 00:46:29;;;;;;;;;;;;;;;;;;;;;
2022/06/05 00:49:02;;;;;;;12.88;5.95;;;;;;;;;;5156351;27;20051;-77
2022/06/05 00:51:35;;;;;;;11.18;5.97;;;;;;;;;;5132088;27;20081;-77
2022/06/05 00:54:15;;;;;;;11.55;5.80;;;;;;;;;;5128200;27;20050;-78
2022/06/05 00:56:48;;;;;;;12.10;5.95;;;;;;;;;;5149826;27;20140;-77
2022/06/05 00:59:23;;;;;;;11.82;6.05;;;;;;;;;;5142992;27;20786;-77
2022/06/05 01:01:54;;;;;;;11.20;5.97;;;;;;;;;;5158489;27;20138;-78
2022/06/05 01:04:32;;;;;;;13.68;6.32;;;;;;;;;;5157154;27;20382;-77
2022/06/05 01:07:04;;;;;;;12.55;5.90;;;;;;;;;;5163320;27;20808;-77
2022/06/05 01:09:41;;;;;;;15.15;6.38;;;;;;;;;;5155389;27;20051;-77
2022/06/05 01:12:15;;;;;;;15.18;6.22;;;;;;;;;;5154097;27;20203;-77
2022/06/05 01:15:05;;;;;;;14.27;6.15;;;;;;;;;;5141279;27;20092;-77
2022/06/05 01:17:53;;;;;;;11.13;6.05;;;;;;;;;;5154390;27;20608;-77
2022/06/05 01:20:32;;;;;;;12.90;6.53;;;;;;;;;;5153140;27;20525;-78
2022/06/05 01:23:20;;;;;;;15.63;6.68;;;;;;;;;;5151958;27;20055;-77
2022/06/05 01:26:14;;;;;;;16.65;7.00;;;;;;;;;;5139717;27;20054;-78
2022/06/05 01:28:47;;;;;;;;;;;;;;;;;;5151703;27;20154;-78
2022/06/05 01:34:26;;;;;;;12.70;6.10;;;;;;;;;;5148173;27;20134;-78
2022/06/05 01:37:31;;;;;;;12.70;6.35;;;;;;;;;;5140764;27;20058;-78
2022/06/05 01:40:07;;;;;;;10.20;5.78;;;;;;;;;;5098227;27;20102;-78
2022/06/05 01:42:40;;;;;;;11.77;6.93;;;;;;;;;;5131299;27;20070;-78
2022/06/05 01:45:20;;;;;;;11.85;6.15;;;;;;;;;;5142436;27;20050;-78
2022/06/05 01:47:54;;;;;;;11.43;6.22;;;;;;;;;;5127514;27;20047;-78
2022/06/05 01:50:21;;;;;;;11.18;6.28;;;;;;;;;;5143888;27;20440;-78
2022/06/05 01:53:04;;;;;;;12.57;6.68;;;;;;;;;;5127051;27;20055;-77
2022/06/05 01:55:38;;;;;;;12.63;6.90;;;;;;;;;;5164946;27;20051;-78
2022/06/05 01:58:06;;;;;;;12.20;6.60;;;;;;;;;;5139545;27;20069;-78
2022/06/05 02:00:41;;;;;;;11.70;6.68;;;;;;;;;;5126373;27;20050;-78
2022/06/05 02:03:12;;;;;;;13.60;6.72;;;;;;;;;;5135719;27;20059;-78
2022/06/05 02:05:51;;;;;;;12.85;6.72;;;;;;;;;;5155043;27;20055;-78
2022/06/05 02:08:31;;;;;;;12.23;6.68;;;;;;;;;;5137942;27;20055;-78
2022/06/05 02:11:05;;;;;;;12.55;6.60;;;;;;;;;;5132874;27;20109;-78
2022/06/05 02:13:43;;;;;;;14.80;6.70;;;;;;;;;;5129946;27;20047;-78
2022/06/05 02:16:13;;;;;;;14.90;6.85;;;;;;;;;;5162902;27;20130;-78
2022/06/05 02:18:47;;;;;;;13.10;7.05;;;;;;;;;;5155493;27;20081;-78
2022/06/05 02:21:27;;;;;;;16.83;6.68;;;;;;;;;;5140822;27;20043;-78
2022/06/05 02:23:58;;;;;;;13.18;7.60;;;;;;;;;;5134681;27;20107;-78
2022/06/05 02:26:41;;;;;;;13.73;7.53;;;;;;;;;;5151856;27;20055;-78
2022/06/05 02:29:22;;;;;;;11.52;7.55;;;;;;;;;;5147685;27;20058;-78
2022/06/05 02:32:01;;;;;;;16.58;7.63;;;;;;;;;;5156773;27;20928;-78
2022/06/05 02:34:50;;;;;;;12.35;6.95;;;;;;;;;;5141557;27;20553;-78
2022/06/05 02:37:36;;;;;;;16.90;7.30;;;;;;;;;;5149740;27;20633;-78
2022/06/05 02:40:24;;;;;;;15.00;7.68;;;;;;;;;;5170406;27;20042;-77
2022/06/05 02:43:04;;;;;;;12.73;7.38;;;;;;;;;;5127444;27;20486;-77
2022/06/05 02:45:54;;;;;;;13.95;7.30;;;;;;;;;;5131742;27;20092;-78
2022/06/05 02:48:30;;;;;;;14.15;7.75;;;;;;;;;;5138077;27;20130;-78
2022/06/05 02:51:13;;;;;;;13.10;7.90;;;;;;;;;;5145600;27;20046;-78
2022/06/05 02:53:49;;;;;;;15.05;8.25;;;;;;;;;;5143345;27;20083;-78
2022/06/05 02:56:22;;;;;;;16.20;7.55;;;;;;;;;;5133129;27;20118;-78
2022/06/05 02:58:56;;;;;;;15.18;7.70;;;;;;;;;;5152155;27;20066;-78
2022/06/05 03:04:15;;;;;;;13.02;7.65;;;;;;;;;;5150217;27;20077;-78
2022/06/05 03:06:55;;;;;;;13.63;7.10;;;;;;;;;;5153758;27;20049;-78
2022/06/05 03:09:35;;;;;;;15.63;8.15;;;;;;;;;;5129938;27;20150;-78
2022/06/05 03:12:16;;;;;;;12.27;7.47;;;;;;;;;;5153061;27;20864;-77
2022/06/05 03:14:50;;;;;;;14.95;7.90;;;;;;;;;;5158059;27;20051;-77
2022/06/05 03:17:19;;;;;;;15.52;7.38;;;;;;;;;;5147748;27;20055;-77
2022/06/05 03:19:50;;;;;;;15.73;7.78;;;;;;;;;;5149191;27;20509;-78
2022/06/05 03:22:18;;;;;;;16.83;7.78;;;;;;;;;;5135850;27;20509;-76
2022/06/05 03:24:44;;;;;;;15.60;8.35;;;;;;;;;;5160588;27;20078;-76
2022/06/05 03:27:10;;;;;;;13.68;7.60;;;;;;;;;;5146127;27;20429;-76
2022/06/05 03:29:37;;;;;;;14.45;7.95;;;;;;;;;;5127152;27;20565;-77
2022/06/05 03:32:03;;;;;;;16.02;8.23;;;;;;;;;;5149547;27;20053;-76
2022/06/05 03:34:30;;;;;;;13.35;7.97;;;;;;;;;;5148681;27;20147;-77
2022/06/05 03:36:56;;;;;;;16.85;8.38;;;;;;;;;;5154121;27;20088;-76
2022/06/05 03:39:23;;;;;;;18.08;8.60;;;;;;;;;;5153086;27;20287;-76
2022/06/05 03:41:49;;;;;;;17.83;8.55;;;;;;;;;;5126597;27;20130;-76
2022/06/05 03:44:16;;;;;;;14.52;8.18;;;;;;;;;;5138823;27;20062;-76
2022/06/05 03:46:42;;;;;;;18.25;8.50;;;;;;;;;;5143108;27;20051;-75
2022/06/05 03:49:09;;;;;;;15.43;8.05;;;;;;;;;;5153922;27;20506;-76
2022/06/05 03:51:36;;;;;;;16.92;8.82;;;;;;;;;;5140455;27;20051;-76
2022/06/05 03:54:03;;;;;;;16.75;8.73;;;;;;;;;;5152610;27;21004;-76
2022/06/05 03:56:29;;;;;;;17.98;8.50;;;;;;;;;;5144436;27;20516;-76
2022/06/05 03:58:56;;;;;;;19.13;8.00;;;;;;;;;;5151321;27;20047;-76
2022/06/05 04:01:23;;;;;;;18.35;8.68;;;;;;;;;;5144518;27;20047;-76
2022/06/05 04:03:50;;;;;;;14.73;8.63;;;;;;;;;;5143709;27;20051;-77
2022/06/05 04:06:22;;;;;;;13.85;8.32;;;;;;;;;;5126223;27;20166;-77
2022/06/05 04:08:48;;;;;;;15.27;8.50;;;;;;;;;;5152800;27;20130;-76
2022/06/05 04:11:19;;;;;;;16.23;8.52;;;;;;;;;;5157154;27;20073;-76
2022/06/05 04:13:45;;;;;;;19.55;8.88;;;;;;;;;;5149530;27;20509;-76
2022/06/05 04:16:13;;;;;;;15.48;8.80;;;;;;;;;;5157738;27;20634;-76
2022/06/05 04:18:40;;;;;;;16.38;8.55;;;;;;;;;;5153342;27;20047;-76
2022/06/05 04:21:07;;;;;;;16.77;8.90;;;;;;;;;;5143359;27;20058;-76
2022/06/05 04:23:33;;;;;;;16.63;9.25;;;;;;;;;;5132746;27;20084;-76
2022/06/05 04:26:00;;;;;;;17.30;8.45;;;;;;;;;;5141743;27;20096;-76
2022/06/05 04:28:26;;;;;;;15.30;8.77;;;;;;;;;;5144444;27;20059;-76
2022/06/05 04:30:53;;;;;;;16.05;8.57;;;;;;;;;;5132828;27;20474;-76
2022/06/05 04:33:19;;;;;;;17.77;8.98;;;;;;;;;;5156965;27;20039;-77
2022/06/05 04:35:46;;;;;;;16.38;8.70;;;;;;;;;;5147576;27;20536;-77
2022/06/05 04:38:12;;;;;;;16.42;9.50;;;;;;;;;;5164319;27;20054;-76
2022/06/05 04:40:38;;;;;;;16.13;8.85;;;;;;;;;;5152980;27;20051;-76
2022/06/05 04:43:06;;;;;;;16.77;9.32;;;;;;;;;;5159961;27;20054;-76
2022/06/05 04:45:32;;;;;;;20.25;9.80;;;;;;;;;;5148628;27;20604;-76
2022/06/05 04:47:59;;;;;;;17.23;8.75;;;;;;;;;;5150323;27;20046;-77
2022/06/05 04:50:25;;;;;;;17.50;8.75;;;;;;;;;;5137482;27;20050;-76
2022/06/05 04:52:52;;;;;;;18.63;9.68;;;;;;;;;;5146950;27;20695;-76
2022/06/05 04:55:18;;;;;;;18.13;8.77;;;;;;;;;;5146885;27;20055;-76
2022/06/05 04:57:45;;;;;;;19.52;9.20;;;;;;;;;;5156788;27;20891;-76
2022/06/05 05:00:11;;;;;;;17.30;9.20;;;;;;;;;;5130980;27;20054;-76
2022/06/05 05:02:38;;;;;;;19.10;9.60;;;;;;;;;;5161127;27;20050;-76
2022/06/05 05:05:05;;;;;;;15.73;9.43;;;;;;;;;;5156707;27;20051;-76
2022/06/05 05:07:31;;;;;;;17.80;9.27;;;;;;;;;;5127577;27;20108;-76
2022/06/05 05:09:57;;;;;;;17.83;9.25;;;;;;;;;;5131072;27;20941;-76
2022/06/05 05:12:24;;;;;;;16.70;9.68;;;;;;;;;;5123472;27;20051;-76
2022/06/05 05:14:50;;;;;;;17.55;9.30;;;;;;;;;;5133920;27;20051;-76
2022/06/05 05:17:16;;;;;;;19.90;9.80;;;;;;;;;;5159850;27;20101;-76
2022/06/05 05:19:43;;;;;;;14.88;9.18;;;;;;;;;;5148802;27;20058;-76
2022/06/05 05:22:10;;;;;;;16.58;9.07;;;;;;;;;;5145859;27;20509;-76
2022/06/05 05:24:36;;;;;;;17.00;9.32;;;;;;;;;;5136487;27;20592;-76
2022/06/05 05:27:02;;;;;;;23.52;10.10;;;;;;;;;;5141414;27;20524;-76
2022/06/05 05:29:29;;;;;;;18.77;9.45;;;;;;;;;;5125347;27;20057;-76
2022/06/05 05:31:55;;;;;;;16.20;9.48;;;;;;;;;;5146386;27;20178;-76
2022/06/05 05:34:21;;;;;;;15.13;9.18;;;;;;;;;;5150505;27;20077;-76
2022/06/05 05:36:48;;;;;;;18.00;9.85;;;;;;;;;;5126104;27;20051;-76
2022/06/05 05:42:05;;;;;;;16.58;9.20;;;;;;;;;;5149634;27;20486;-76
2022/06/05 05:44:32;;;;;;;19.85;9.98;;;;;;;;;;5144587;27;20058;-76
2022/06/05 05:46:59;;;;;;;16.73;9.02;;;;;;;;;;5145497;27;20138;-76
2022/06/05 05:49:25;;;;;;;17.95;9.80;;;;;;;;;;5150118;27;20645;-76
2022/06/05 05:51:51;;;;;;;18.73;9.68;;;;;;;;;;5149764;27;20042;-76
2022/06/05 05:54:18;;;;;;;19.67;9.57;;;;;;;;;;5160138;27;20050;-76
2022/06/05 05:56:44;;;;;;;19.67;9.90;;;;;;;;;;5146432;27;20471;-76
2022/06/05 05:59:11;;;;;;;17.38;9.15;;;;;;;;;;5149579;27;20050;-76
2022/06/05 06:01:37;;;;;;;20.10;9.55;;;;;;;;;;5137813;27;20138;-76
2022/06/05 06:04:04;;;;;;;15.95;9.50;;;;;;;;;;5162448;27;20103;-76
2022/06/05 06:06:32;;;;;;;20.77;9.88;;;;;;;;;;5148499;27;20082;-76
2022/06/05 06:08:59;;;;;;;17.15;9.63;;;;;;;;;;5135795;27;20051;-76
2022/06/05 06:11:26;;;;;;;16.88;9.50;;;;;;;;;;5135464;27;20054;-76
2022/06/05 06:13:52;;;;;;;15.57;9.57;;;;;;;;;;5148516;27;20051;-76
2022/06/05 06:16:19;;;;;;;16.45;9.23;;;;;;;;;;5152854;27;20050;-76
2022/06/05 06:18:45;;;;;;;15.20;9.40;;;;;;;;;;5128096;27;20057;-76
2022/06/05 06:21:13;;;;;;;21.67;9.90;;;;;;;;;;5126827;27;20073;-76
2022/06/05 06:23:39;;;;;;;18.38;9.70;;;;;;;;;;5128433;27;20134;-76
2022/06/05 06:26:06;;;;;;;18.63;9.93;;;;;;;;;;5144179;27;20054;-76
2022/06/05 06:28:32;;;;;;;16.20;9.65;;;;;;;;;;5148883;27;20215;-76
2022/06/05 06:31:02;;;;;;;19.25;9.98;;;;;;;;;;5146910;27;20056;-76
2022/06/05 06:33:29;;;;;;;16.00;9.10;;;;;;;;;;5141354;27;20214;-76
2022/06/05 06:35:55;;;;;;;17.67;9.63;;;;;;;;;;5153596;27;20497;-76
2022/06/05 06:38:21;;;;;;;16.83;9.32;;;;;;;;;;5143906;27;20669;-76
2022/06/05 06:40:48;;;;;;;17.33;9.38;;;;;;;;;;5126667;27;20134;-76
2022/06/05 06:43:18;;;;;;;17.00;9.50;;;;;;;;;;5136499;27;20061;-76
2022/06/05 06:45:44;;;;;;;26.67;10.18;;;;;;;;;;5166171;27;20350;-76
2022/06/05 06:48:10;;;;;;;17.95;9.45;;;;;;;;;;5151117;27;20058;-76
2022/06/05 06:50:37;;;;;;;14.50;9.57;;;;;;;;;;5145308;27;20096;-76
2022/06/05 06:53:03;;;;;;;16.95;10.63;;;;;;;;;;5143688;27;20138;-76
2022/06/05 06:55:32;;;;;;;17.10;9.45;;;;;;;;;;5141989;27;20054;-76
2022/06/05 06:57:58;;;;;;;18.48;9.48;;;;;;;;;;5156148;27;20049;-76
2022/06/05 07:00:25;;;;;;;18.85;9.80;;;;;;;;;;5145438;27;20058;-76
2022/06/05 07:02:51;;;;;;;17.63;9.30;;;;;;;;;;5164395;27;20567;-76
2022/06/05 07:05:18;;;;;;;15.88;9.40;;;;;;;;;;5151148;27;20526;-76
2022/06/05 07:07:44;;;;;;;15.18;9.65;;;;;;;;;;5143463;27;20527;-76
2022/06/05 07:10:10;;;;;;;16.90;9.40;;;;;;;;;;5143150;27;20043;-76
2022/06/05 07:12:37;;;;;;;17.08;10.15;;;;;;;;;;5147647;27;20051;-76
2022/06/05 07:15:04;;;;;;;17.42;9.13;;;;;;;;;;5143818;27;20201;-76
2022/06/05 07:17:31;;;;;;;15.45;8.93;;;;;;;;;;5133851;27;20056;-76
2022/06/05 07:19:57;;;;;;;15.00;8.88;;;;;;;;;;5143978;27;20053;-76
2022/06/05 07:22:24;;;;;;;19.20;9.27;;;;;;;;;;5149618;27;20142;-76
2022/06/05 07:24:50;;;;;;;15.93;9.48;;;;;;;;;;5126940;27;20134;-76
2022/06/05 07:27:17;;;;;;;17.95;9.88;;;;;;;;;;5140864;27;20432;-76
2022/06/05 07:29:44;;;;;;;15.15;8.95;;;;;;;;;;5127480;27;20051;-77
2022/06/05 07:32:11;;;;;;;16.55;9.55;;;;;;;;;;5148260;27;20104;-77
2022/06/05 07:34:37;;;;;;;17.55;9.82;;;;;;;;;;5129686;27;20819;-77
2022/06/05 07:37:09;;;;;;;16.88;9.40;;;;;;;;;;5128594;27;20055;-76
2022/06/05 07:39:36;;;;;;;18.02;9.80;;;;;;;;;;5143373;27;20604;-76
2022/06/05 07:42:03;;;;;;;15.50;9.55;;;;;;;;;;5126670;27;20141;-76
2022/06/05 07:44:29;;;;;;;14.38;9.38;;;;;;;;;;5152403;27;20050;-76
2022/06/05 07:46:56;;;;;;;13.43;9.20;;;;;;;;;;5164000;27;20058;-76
2022/06/05 07:49:22;;;;;;;15.13;9.23;;;;;;;;;;5143227;27;20053;-76
2022/06/05 07:54:34;;;;;;;12.90;8.80;;;;;;;;;;5165921;27;20051;-76
2022/06/05 07:57:05;;;;;;;13.98;9.00;;;;;;;;;;5166803;27;20053;-76
2022/06/05 07:59:40;;;;;;;18.00;8.63;;;;;;;;;;5144969;27;20149;-76
2022/06/05 08:02:08;;;;;;;13.18;8.85;;;;;;;;;;5155039;27;20047;-76
2022/06/05 08:04:35;;;;;;;14.00;9.43;;;;;;;;;;5153975;27;20544;-76
2022/06/05 08:07:03;;;;;;;12.38;8.38;;;;;;;;;;5160728;27;20134;-76
2022/06/05 08:09:31;;;;;;;17.13;8.90;;;;;;;;;;5127357;27;20133;-76
2022/06/05 08:11:58;;;;;;;12.27;8.30;;;;;;;;;;5127508;27;20047;-76
2022/06/05 08:14:24;;;;;;;13.40;9.02;;;;;;;;;;5145178;27;20059;-76
2022/06/05 08:16:51;;;;;;;17.40;9.38;;;;;;;;;;5146333;27;20110;-76
2022/06/05 08:19:19;;;;;;;15.57;9.10;;;;;;;;;;5137509;27;20046;-76
2022/06/05 08:21:46;;;;;;;13.50;8.38;;;;;;;;;;5137277;27;20077;-76
2022/06/05 08:24:13;;;;;;;14.20;8.02;;;;;;;;;;5148118;27;20059;-76
2022/06/05 08:26:39;;;;;;;14.40;9.05;;;;;;;;;;5166785;27;20104;-76
2022/06/05 08:29:06;;;;;;;16.48;8.52;;;;;;;;;;5163044;27;20146;-76
2022/06/05 08:31:33;;;;;;;11.30;8.65;;;;;;;;;;5148093;27;20054;-76
2022/06/05 08:34:01;;;;;;;11.65;8.05;;;;;;;;;;5143889;27;20051;-77
2022/06/05 08:36:28;;;;;;;11.13;8.27;;;;;;;;;;5161050;27;20057;-77
2022/06/05 08:41:59;;;;;;;12.68;8.07;;;;;;;;;;5159135;27;20200;-76
2022/06/05 08:44:33;;;;;;;13.98;7.85;;;;;;;;;;5143695;27;20053;-76
2022/06/05 08:47:11;;;;;;;12.68;8.23;;;;;;;;;;5144440;27;20055;-76
2022/06/05 08:49:46;;;;;;;12.32;7.85;;;;;;;;;;5135828;27;20519;-77
2022/06/05 08:52:17;;;;;;;11.23;7.00;;;;;;;;;;5133066;27;20154;-77
2022/06/05 08:55:02;;;;;;;11.48;7.03;;;;;;;;;;5133876;27;20057;-77
2022/06/05 08:57:47;;;;;;;12.32;7.88;;;;;;;;;;5134298;27;20051;-77
2022/06/05 09:00:14;;;;;;;10.65;7.95;;;;;;;;;;5144853;27;20099;-76
2022/06/05 09:02:44;;;;;;;11.85;7.88;;;;;;;;;;5141817;27;20078;-77
2022/06/05 09:05:13;;;;;;;9.70;7.47;;;;;;;;;;5145147;27;20050;-77
2022/06/05 09:07:59;;;;;;;13.63;7.72;;;;;;;;;;5139365;27;20057;-77
2022/06/05 09:10:37;;;;;;;9.40;7.55;;;;;;;;;;5156160;27;20086;-76
2022/06/05 09:13:12;;;;;;;9.48;7.15;;;;;;;;;;5147003;27;20047;-77
2022/06/05 09:15:45;;;;;;;12.13;7.70;;;;;;;;;;5139219;27;20498;-77
2022/06/05 09:18:19;;;;;;;12.77;7.55;;;;;;;;;;5145760;27;20606;-77
2022/06/05 09:20:46;;;;;;;9.82;7.75;;;;;;;;;;5145286;27;20086;-77
2022/06/05 09:23:20;;;;;;;11.50;7.78;;;;;;;;;;5147465;27;20047;-77
2022/06/05 09:25:58;;;;;;;13.07;7.22;;;;;;;;;;5137003;27;20047;-77
2022/06/05 09:28:36;;;;;;;12.23;7.30;;;;;;;;;;5145089;27;20134;-77
2022/06/05 09:31:09;;;;;;;11.30;7.55;;;;;;;;;;5158521;27;20101;-77
2022/06/05 09:33:36;;;;;;;11.32;7.60;;;;;;;;;;5138125;27;20112;-77
2022/06/05 09:36:13;;;;;;;10.60;7.68;;;;;;;;;;5137308;27;20046;-77
2022/06/05 09:38:45;;;;;;;10.77;7.90;;;;;;;;;;5150668;27;20051;-77
2022/06/05 09:41:11;;;;;;;9.98;7.68;;;;;;;;;;5139810;27;20042;-77
2022/06/05 09:44:04;;;;;;;10.70;7.47;;;;;;;;;;5139680;27;20095;-76
2022/06/05 09:46:30;;;;;;;10.35;7.32;;;;;;;;;;5134726;27;20058;-76
2022/06/05 09:48:57;;;;;;;11.13;6.90;;;;;;;;;;5140499;27;20533;-77
2022/06/05 09:51:24;;;;;;;9.23;6.93;;;;;;;;;;5139355;27;20078;-76
2022/06/05 09:53:59;;;;;;;10.85;6.97;;;;;;;;;;5168569;27;20053;-76
2022/06/05 09:56:28;;;;;;;9.77;6.50;;;;;;;;;;5138597;27;20050;-77
2022/06/05 09:58:55;;;;;;;10.68;6.90;;;;;;;;;;5145305;27;20059;-77
2022/06/05 10:01:28;;;;;;;9.73;6.60;;;;;;;;;;5160591;27;20050;-77
2022/06/05 10:03:56;;;;;;;10.07;6.70;;;;;;;;;;5135923;27;20104;-77
2022/06/05 10:06:26;;;;;;;11.55;7.03;;;;;;;;;;5165323;27;20579;-77
2022/06/05 10:08:55;;;;;;;10.73;6.73;;;;;;;;;;5150668;27;20055;-77
2022/06/05 10:11:39;;;;;;;9.20;6.60;;;;;;;;;;5159537;27;20368;-76
2022/06/05 10:14:20;;;;;;;9.52;6.70;;;;;;;;;;5134704;27;20077;-77
2022/06/05 10:17:22;;;;;;;7.22;6.25;;;;;;;;;;5147948;27;20051;-77
2022/06/05 10:20:08;;;;;;;9.27;6.47;;;;;;;;;;5137313;27;20057;-76
2022/06/05 10:22:47;;;;;;;9.25;6.32;;;;;;;;;;5130779;27;20748;-77
2022/06/05 10:25:28;;;;;;;8.30;6.40;;;;;;;;;;5145580;27;20062;-77
2022/06/05 10:28:08;;;;;;;7.28;5.57;;;;;;;;;;5137297;27;20120;-77
2022/06/05 10:30:42;;;;;;;6.93;5.57;;;;;;;;;;5153550;27;20574;-77
2022/06/05 10:33:08;;;;;;;7.82;5.95;;;;;;;;;;5169051;27;20055;-76
2022/06/05 10:35:44;;;;;;;9.60;6.55;;;;;;;;;;5133132;27;20050;-76
2022/06/05 10:38:16;;;;;;;8.23;6.43;;;;;;;;;;5148508;27;20509;-76
2022/06/05 10:40:48;;;;;;;11.27;8.20;;;;;;;;;;5147588;27;20050;-77
2022/06/05 10:43:28;;;;;;;8.80;6.32;;;;;;;;;;5166719;27;20059;-77
2022/06/05 10:45:54;;;;;;;;;;;;;;;;;;5149639;27;20505;-77
2022/06/05 10:48:20;;;;;;;9.07;6.40;;;;;;;;;;5140065;27;46044;-77
2022/06/05 10:50:49;;;;;;;8.43;6.38;;;;;;;;;;5130875;27;20527;-78
2022/06/05 10:53:34;;;;;;;8.50;6.60;;;;;;;;;;5163287;27;20050;-78
2022/06/05 10:56:12;;;;;;;8.50;6.25;;;;;;;;;;5159305;27;20036;-78
2022/06/05 10:58:39;;;;;;;8.52;6.65;;;;;;;;;;5167907;27;20055;-78
2022/06/05 11:01:05;;;;;;;9.38;6.70;;;;;;;;;;5133948;27;20043;-77
2022/06/05 11:03:50;;;;;;;9.10;7.05;;;;;;;;;;5143732;27;20130;-78
2022/06/05 11:06:25;;;;;;;7.72;6.70;;;;;;;;;;5137694;27;20049;-78
2022/06/05 11:08:54;;;;;;;8.80;7.10;;;;;;;;;;5138498;27;20051;-77
2022/06/05 11:14:14;;;;;;;10.52;7.65;;;;;;;;;;5163123;27;21134;-78
2022/06/05 11:16:58;;;;;;;12.35;7.28;;;;;;;;;;5136018;27;20131;-78
2022/06/05 11:19:35;;;;;;;8.43;6.55;;;;;;;;;;5132160;27;20051;-78
2022/06/05 11:22:05;;;;;;;8.52;6.60;;;;;;;;;;5158854;27;20066;-78
2022/06/05 11:24:33;;;;;;;9.82;6.93;;;;;;;;;;5141303;27;20490;-78
2022/06/05 11:27:14;;;;;;;9.52;6.90;;;;;;;;;;5146965;27;20106;-78
2022/06/05 11:29:46;;;;;;;10.13;6.72;;;;;;;;;;5139545;27;20579;-78
2022/06/05 11:32:24;;;;;;;9.13;6.82;;;;;;;;;;5155371;27;20944;-78
2022/06/05 11:34:51;;;;;;;8.43;7.07;;;;;;;;;;5139098;27;20138;-78
2022/06/05 11:37:21;;;;;;;9.18;6.80;;;;;;;;;;5169575;27;20047;-78
2022/06/05 11:40:23;;;;;;;10.70;6.35;;;;;;;;;;5155246;27;20751;-78
2022/06/05 11:43:08;;;;;;;11.88;8.15;;;;;;;;;;5044167;28;20059;-78
2022/06/05 11:45:46;;;;;;;9.52;7.15;;;;;;;;;;5137675;27;20050;-78
2022/06/05 11:48:19;;;;;;;10.65;7.07;;;;;;;;;;5159395;27;20055;-78
2022/06/05 11:50:49;;;;;;;10.57;7.53;;;;;;;;;;5160769;27;20062;-78
2022/06/05 11:53:31;;;;;;;8.45;7.45;;;;;;;;;;5135707;27;20055;-78
2022/06/05 11:56:16;;;;;;;10.48;7.47;;;;;;;;;;5139263;27;20398;-78
2022/06/05 11:59:01;;;;;;;9.85;7.32;;;;;;;;;;5146756;27;20043;-77
2022/06/05 12:01:30;;;;;;;10.23;7.80;;;;;;;;;;5163652;27;20130;-78
2022/06/05 12:04:17;;;;;;;9.65;7.93;;;;;;;;;;5144556;27;20057;-77
2022/06/05 12:07:10;;;;;;;9.88;7.95;;;;;;;;;;5168816;27;20062;-77
2022/06/05 12:09:56;;;;;;;9.73;8.00;;;;;;;;;;5135303;27;20059;-77
2022/06/05 12:12:35;;;;;;;10.23;8.20;;;;;;;;;;5141456;27;20133;-77
2022/06/05 12:15:14;;;;;;;13.70;7.78;;;;;;;;;;5158692;27;20497;-77
2022/06/05 12:17:46;;;;;;;11.07;8.68;;;;;;;;;;5148707;27;20046;-77
2022/06/05 12:20:27;;;;;;;11.30;8.18;;;;;;;;;;5135097;27;20134;-76
2022/06/05 12:23:00;;;;;;;11.45;8.73;;;;;;;;;;5156743;27;20130;-78
2022/06/05 12:25:30;;;;;;;12.98;8.73;;;;;;;;;;5142302;27;20051;-77
2022/06/05 12:28:05;;;;;;;11.30;8.77;;;;;;;;;;5163936;27;20107;-78
2022/06/05 12:30:43;;;;;;;12.95;9.18;;;;;;;;;;5138823;27;20086;-78
2022/06/05 12:33:25;;;;;;;10.65;8.90;;;;;;;;;;5142521;27;20055;-78
2022/06/05 12:35:53;;;;;;;15.32;10.02;;;;;;;;;;5134918;27;20834;-80
2022/06/05 12:38:29;;;;;;;14.38;10.20;;;;;;;;;;5154655;27;20061;-77
2022/06/05 12:40:58;;;;;;;13.63;10.75;;;;;;;;;;5146500;27;20509;-77
2022/06/05 12:43:28;;;;;;;14.43;10.70;;;;;;;;;;5156061;27;20053;-77
2022/06/05 12:46:21;;;;;;;14.93;11.05;;;;;;;;;;5153333;27;20069;-78
2022/06/05 12:48:47;;;;;;;16.83;11.52;;;;;;;;;;5155906;27;20051;-77
2022/06/05 12:51:16;;;;;;;15.05;11.48;;;;;;;;;;5156084;27;20050;-77
2022/06/05 12:53:49;;;;;;;18.02;11.88;;;;;;;;;;5136935;27;20525;-77
2022/06/05 12:56:34;;;;;;;17.63;11.32;;;;;;;;;;5145211;27;20047;-77
2022/06/05 12:59:03;;;;;;;19.10;12.50;;;;;;;;;;5160046;27;21449;-77
2022/06/05 13:01:33;;;;;;;22.20;13.80;;;;;;;;;;5156223;27;20129;-76
2022/06/05 13:04:04;;;;;;;19.65;14.07;;;;;;;;;;5154744;27;20055;-76
2022/06/05 13:06:36;;;;;;;18.80;13.30;;;;;;;;;;5154627;27;20051;-76
2022/06/05 13:09:06;;;;;;;19.67;13.43;;;;;;;;;;5127985;27;20086;-76
2022/06/05 13:11:40;;;;;;;18.88;13.05;;;;;;;;;;5132216;27;20047;-75
2022/06/05 13:14:13;;;;;;;18.65;13.85;;;;;;;;;;5164742;27;20051;-75
2022/06/05 13:16:40;;;;;;;15.47;12.90;;;;;;;;;;5152667;27;20112;-76
2022/06/05 13:19:27;;;;;;;19.42;14.13;;;;;;;;;;5152376;27;20307;-75
2022/06/05 13:22:10;;;;;;;18.95;12.88;;;;;;;;;;5127275;27;20078;-75
2022/06/05 13:24:53;;;;;;;17.15;12.07;;;;;;;;;;5160712;27;20135;-76
2022/06/05 13:27:20;;;;;;;18.10;13.13;;;;;;;;;;5155580;27;20077;-75
2022/06/05 13:29:46;;;;;;;16.65;13.07;;;;;;;;;;5152964;27;20066;-75
2022/06/05 13:32:16;;;;;;;16.27;12.98;;;;;;;;;;5158515;27;20973;-75
2022/06/05 13:35:12;;;;;;;16.43;13.37;;;;;;;;;;5130044;27;20059;-74
2022/06/05 13:37:41;;;;;;;17.63;13.18;;;;;;;;;;5158359;27;20133;-74
2022/06/05 13:40:13;;;;;;;16.42;13.38;;;;;;;;;;5149718;27;20051;-74
2022/06/05 13:42:41;;;;;;;20.33;13.98;;;;;;;;;;5160397;27;20047;-74
2022/06/05 13:45:23;;;;;;;18.13;14.07;;;;;;;;;;5135402;27;20137;-74
2022/06/05 13:47:56;;;;;;;17.83;14.07;;;;;;;;;;5135155;27;20057;-75
2022/06/05 13:50:32;;;;;;;18.42;15.50;;;;;;;;;;5149887;27;20059;-74
2022/06/05 13:53:19;;;;;;;19.73;15.02;;;;;;;;;;5143204;27;20089;-75
2022/06/05 13:55:54;;;;;;;20.30;14.68;;;;;;;;;;5141189;27;20081;-75
2022/06/05 13:58:23;;;;;;;21.00;15.35;;;;;;;;;;5134243;27;20047;-75
2022/06/05 14:00:57;;;;;;;19.27;15.05;;;;;;;;;;5150249;27;20057;-75
2022/06/05 14:03:35;;;;;;;17.27;15.48;;;;;;;;;;5148474;27;20081;-75
2022/06/05 14:06:04;;;;;;;21.25;15.68;;;;;;;;;;5135192;27;20570;-76
2022/06/05 14:08:44;;;;;;;27.50;18.25;;;;;;;;;;5157658;27;20142;-77
2022/06/05 14:11:10;;;;;;;26.37;17.73;;;;;;;;;;5128549;27;20051;-80
2022/06/05 14:13:38;;;;;;;25.80;16.85;;;;;;;;;;5142961;27;20294;-76
2022/06/05 14:16:05;;;;;;;25.42;18.27;;;;;;;;;;5147306;27;20570;-76
2022/06/05 14:18:49;;;;;;;29.05;18.90;;;;;;;;;;5152682;27;20058;-75
2022/06/05 14:21:19;;;;;;;22.27;17.60;;;;;;;;;;5134399;27;20067;-75
2022/06/05 14:24:07;;;;;;;25.67;18.33;;;;;;;;;;5151794;27;20103;-75
2022/06/05 14:26:45;;;;;;;20.02;15.85;;;;;;;;;;5154094;27;20295;-74
2022/06/05 14:29:24;;;;;;;22.38;17.50;;;;;;;;;;5153525;27;20073;-74
2022/06/05 14:32:08;;;;;;;21.08;17.60;;;;;;;;;;5150146;27;20124;-74
2022/06/05 14:34:39;;;;;;;21.73;16.90;;;;;;;;;;5158975;27;20596;-74
2022/06/05 14:37:07;;;;;;;19.92;16.63;;;;;;;;;;5136333;27;20058;-74
2022/06/05 14:39:36;;;;;;;19.63;17.10;;;;;;;;;;5136814;27;20082;-74
2022/06/05 14:42:05;;;;;;;24.90;18.52;;;;;;;;;;5138155;27;20051;-74
2022/06/05 14:44:34;;;;;;;17.85;15.77;;;;;;;;;;5158226;27;20061;-74
2022/06/05 14:47:14;;;;;;;19.73;15.80;;;;;;;;;;5148055;27;20755;-74
2022/06/05 14:49:46;;;;;;;23.05;17.65;;;;;;;;;;5143371;27;20055;-74
2022/06/05 14:52:31;;;;;;;27.73;18.98;;;;;;;;;;5160498;27;20051;-75
2022/06/05 14:58:06;;;;;;;28.38;20.40;;;;;;;;;;5156276;27;20089;-75
2022/06/05 15:00:32;;;;;;;25.92;20.25;;;;;;;;;;5140867;27;20051;-74
2022/06/05 15:03:05;;;;;;;23.92;19.05;;;;;;;;;;5136326;27;20051;-74
2022/06/05 15:05:33;;;;;;;21.17;18.27;;;;;;;;;;5158212;27;20056;-74
2022/06/05 15:08:14;;;;;;;24.35;18.80;;;;;;;;;;5130606;27;20158;-74
2022/06/05 15:10:44;;;;;;;27.40;19.75;;;;;;;;;;5160646;27;20138;-74
2022/06/05 15:13:13;;;;;;;21.95;18.75;;;;;;;;;;5156255;27;21459;-74
2022/06/05 15:16:02;;;;;;;27.55;20.15;;;;;;;;;;5147800;27;20092;-74
2022/06/05 15:18:33;;;;;;;21.48;18.10;;;;;;;;;;5131205;27;20055;-73
2022/06/05 15:21:33;;;;;;;23.92;19.83;;;;;;;;;;5154893;27;20055;-75
2022/06/05 15:24:18;;;;;;;27.48;19.90;;;;;;;;;;5134090;27;20601;-74